Time;durP1;ratioP1;P1;durP2;ratioP2;P2;SDS_P1;SDS_P2;PMS_P1;PMS_P2;Temp;Humidity;BMP_temperature;BMP_pressure;BME280_temperature;BME280_humidity;BME280_pressure;Samples;Min_cycle;Max_cycle;Signal;HPM_P1;HPM_P2
2022/10/21 00:02:19;;;;;;;37.08;28.50;;;11.40;99.90;;;;;;4915456;29;20104;-95
2022/10/21 00:04:45;;;;;;;38.03;30.45;;;11.50;99.90;;;;;;4925746;29;20041;-96
2022/10/21 00:07:10;;;;;;;39.10;31.02;;;11.50;99.90;;;;;;4929708;29;20047;-94
2022/10/21 00:09:36;;;;;;;41.38;31.45;;;11.40;99.90;;;;;;4911831;29;20034;-96
2022/10/21 00:12:02;;;;;;;34.72;28.80;;;11.40;99.90;;;;;;4912817;29;20028;-95
2022/10/21 00:14:28;;;;;;;40.05;31.15;;;11.40;99.90;;;;;;4915871;29;20059;-95
2022/10/21 00:16:53;;;;;;;36.92;30.42;;;11.40;99.90;;;;;;4922261;29;20052;-94
2022/10/21 00:19:19;;;;;;;42.60;31.75;;;11.50;99.90;;;;;;4899705;29;20492;-96
2022/10/21 00:21:44;;;;;;;39.88;30.83;;;11.50;99.90;;;;;;4891849;29;20044;-95
2022/10/21 00:24:10;;;;;;;39.85;30.85;;;11.40;99.90;;;;;;4904960;29;20044;-95
2022/10/21 00:26:36;;;;;;;50.35;33.85;;;11.40;99.90;;;;;;4875930;29;20064;-94
2022/10/21 00:29:02;;;;;;;47.38;34.05;;;11.50;99.90;;;;;;4891570;29;20055;-95
2022/10/21 00:31:29;;;;;;;42.30;32.85;;;11.50;99.90;;;;;;4877546;29;20497;-94
2022/10/21 00:33:55;;;;;;;42.15;32.25;;;11.50;99.90;;;;;;4870565;29;20162;-94
2022/10/21 00:36:20;;;;;;;42.60;31.73;;;11.50;99.90;;;;;;4867509;29;20053;-95
2022/10/21 00:38:47;;;;;;;50.45;32.78;;;11.50;99.90;;;;;;4875003;29;20573;-95
2022/10/21 00:41:15;;;;;;;42.03;31.08;;;11.50;99.90;;;;;;4875021;29;20079;-94
2022/10/21 00:43:59;;;;;;;42.10;32.33;;;11.60;99.90;;;;;;4853840;29;20056;-96
2022/10/21 00:46:33;;;;;;;37.95;30.67;;;11.50;99.90;;;;;;4872593;29;20049;-95
2022/10/21 00:49:01;;;;;;;46.00;33.33;;;11.50;99.90;;;;;;4855164;29;20037;-95
2022/10/21 00:51:27;;;;;;;41.50;32.83;;;11.50;99.90;;;;;;4863562;29;20079;-94
2022/10/21 00:53:53;;;;;;;39.75;31.90;;;11.50;99.90;;;;;;4884870;29;20069;-96
2022/10/21 00:56:25;;;;;;;44.75;31.65;;;11.50;99.90;;;;;;4872490;29;20088;-95
2022/10/21 00:58:54;;;;;;;40.42;31.13;;;11.50;99.90;;;;;;4864437;29;20105;-94
2022/10/21 01:01:19;;;;;;;46.42;31.67;;;11.50;99.90;;;;;;4873503;29;20048;-94
2022/10/21 01:03:45;;;;;;;39.72;30.60;;;11.50;99.90;;;;;;4856286;29;20482;-94
2022/10/21 01:06:12;;;;;;;38.13;30.00;;;11.50;99.90;;;;;;4870703;29;20044;-94
2022/10/21 01:08:38;;;;;;;40.83;31.58;;;11.40;99.90;;;;;;4873416;29;20402;-95
2022/10/21 01:11:09;;;;;;;35.72;28.60;;;11.50;99.90;;;;;;4886595;29;20048;-94
2022/10/21 01:14:12;;;;;;;48.15;32.88;;;11.40;99.90;;;;;;4870607;29;20055;-94
2022/10/21 01:16:51;;;;;;;42.17;31.95;;;11.40;99.90;;;;;;4872695;29;20113;-94
2022/10/21 01:19:43;;;;;;;44.65;31.23;;;11.40;99.90;;;;;;4873915;29;20041;-94
2022/10/21 01:22:17;;;;;;;36.97;29.35;;;11.40;99.90;;;;;;4870268;29;20078;-93
2022/10/21 01:25:13;;;;;;;38.80;29.25;;;11.40;99.90;;;;;;4891895;29;20054;-94
2022/10/21 01:27:51;;;;;;;45.50;32.17;;;11.40;99.90;;;;;;4889204;29;20119;-94
2022/10/21 01:30:33;;;;;;;34.85;28.25;;;11.40;99.90;;;;;;4898733;29;20080;-95
2022/10/21 01:33:26;;;;;;;41.58;30.27;;;11.40;99.90;;;;;;4878012;29;20077;-96
2022/10/21 01:35:58;;;;;;;41.85;31.17;;;11.40;99.90;;;;;;4873960;29;20108;-95
2022/10/21 01:38:42;;;;;;;39.22;30.50;;;11.40;99.90;;;;;;4898215;29;20040;-96
2022/10/21 01:41:20;;;;;;;40.67;30.50;;;11.40;99.90;;;;;;4879823;29;20036;-95
2022/10/21 01:43:53;;;;;;;44.65;30.92;;;11.40;99.90;;;;;;4894535;29;20044;-95
2022/10/21 01:46:43;;;;;;;44.03;31.00;;;11.40;99.90;;;;;;4873035;29;20044;-94
2022/10/21 01:49:20;;;;;;;38.10;30.30;;;11.40;99.90;;;;;;4906458;29;20553;-95
2022/10/21 01:51:46;;;;;;;43.80;32.20;;;11.40;99.90;;;;;;4870849;29;20091;-94
2022/10/21 01:54:19;;;;;;;40.45;30.45;;;11.40;99.90;;;;;;4891647;29;20370;-93
2022/10/21 01:56:47;;;;;;;46.15;32.15;;;11.40;99.90;;;;;;4889078;29;20051;-93
2022/10/21 01:59:14;;;;;;;41.42;32.13;;;11.40;99.90;;;;;;4887497;29;20052;-92
2022/10/21 02:01:41;;;;;;;40.45;31.15;;;11.50;99.90;;;;;;4880607;29;20050;-94
2022/10/21 02:04:08;;;;;;;47.55;33.25;;;11.60;99.90;;;;;;4886619;29;20055;-94
2022/10/21 02:06:34;;;;;;;44.47;32.63;;;11.60;99.90;;;;;;4893160;29;20437;-93
2022/10/21 02:09:00;;;;;;;42.30;31.80;;;11.60;99.90;;;;;;4891533;29;20092;-93
2022/10/21 02:11:27;;;;;;;40.90;32.67;;;11.70;99.90;;;;;;4881254;29;20044;-94
2022/10/21 02:14:05;;;;;;;39.40;31.33;;;11.70;99.90;;;;;;4878795;29;20048;-95
2022/10/21 02:16:35;;;;;;;47.10;34.28;;;11.80;99.90;;;;;;4888827;29;20064;-93
2022/10/21 02:19:01;;;;;;;45.03;33.78;;;11.80;99.90;;;;;;4884984;29;20058;-93
2022/10/21 02:21:33;;;;;;;40.00;32.20;;;11.80;99.90;;;;;;4888386;29;20052;-94
2022/10/21 02:24:05;;;;;;;43.22;32.75;;;11.90;99.90;;;;;;4888610;29;20037;-94
2022/10/21 02:26:31;;;;;;;60.00;37.17;;;12.00;99.90;;;;;;4885980;29;20056;-96
2022/10/21 02:28:58;;;;;;;58.60;36.45;;;12.00;99.90;;;;;;4896560;29;20493;-92
2022/10/21 02:31:45;;;;;;;48.47;34.88;;;12.00;99.90;;;;;;4904175;29;20502;-93
2022/10/21 02:34:36;;;;;;;60.30;38.25;;;12.00;99.90;;;;;;4884894;29;20078;-95
2022/10/21 02:37:06;;;;;;;44.58;32.15;;;12.00;99.90;;;;;;4913732;29;20489;-92
2022/10/21 02:40:05;;;;;;;43.85;33.97;;;12.10;99.90;;;;;;4897505;29;20048;-92
2022/10/21 02:42:36;;;;;;;44.47;33.38;;;12.10;99.90;;;;;;4910013;29;20079;-91
2022/10/21 02:45:03;;;;;;;63.03;37.42;;;12.10;99.90;;;;;;4906189;29;20639;-92
2022/10/21 02:47:28;;;;;;;52.25;36.25;;;12.20;99.90;;;;;;4886928;29;20459;-92
2022/10/21 02:49:54;;;;;;;44.70;32.53;;;12.20;99.90;;;;;;4884416;29;20043;-91
2022/10/21 02:52:20;;;;;;;47.33;35.15;;;12.30;99.90;;;;;;4898339;29;20196;-91
2022/10/21 02:54:46;;;;;;;39.42;31.20;;;12.30;99.90;;;;;;4892503;29;20206;-92
2022/10/21 02:57:12;;;;;;;144.38;44.17;;;12.30;99.90;;;;;;4899780;29;20140;-92
2022/10/21 02:59:37;;;;;;;41.13;31.75;;;12.30;99.90;;;;;;4897249;29;20032;-91
2022/10/21 03:02:03;;;;;;;42.25;32.40;;;12.40;99.90;;;;;;4895493;29;20506;-90
2022/10/21 03:04:29;;;;;;;41.10;31.67;;;12.40;99.90;;;;;;4894745;29;20075;-90
2022/10/21 03:06:55;;;;;;;43.10;32.03;;;12.50;99.90;;;;;;4884584;29;20053;-92
2022/10/21 03:09:20;;;;;;;60.72;35.47;;;12.50;99.90;;;;;;4904305;29;20040;-91
2022/10/21 03:11:46;;;;;;;42.13;31.98;;;12.50;99.90;;;;;;4919192;29;20080;-91
2022/10/21 03:14:12;;;;;;;51.45;34.00;;;12.60;99.90;;;;;;4898010;29;20149;-92
2022/10/21 03:16:37;;;;;;;41.80;31.25;;;12.50;99.90;;;;;;4878243;29;20036;-92
2022/10/21 03:19:03;;;;;;;63.53;37.88;;;12.60;99.90;;;;;;4891921;29;20052;-92
2022/10/21 03:21:29;;;;;;;88.90;42.45;;;12.60;99.90;;;;;;4878516;29;20047;-92
2022/10/21 03:23:55;;;;;;;63.90;38.72;;;12.60;99.90;;;;;;4880612;29;20040;-92
2022/10/21 03:26:20;;;;;;;47.08;33.85;;;12.60;99.90;;;;;;4898689;29;20414;-92
2022/10/21 03:28:46;;;;;;;72.55;37.15;;;12.70;99.90;;;;;;4887306;29;20580;-93
2022/10/21 03:31:12;;;;;;;83.32;36.28;;;12.60;99.90;;;;;;4884297;29;20052;-93
2022/10/21 03:33:38;;;;;;;44.60;31.70;;;12.60;99.90;;;;;;4910444;29;20044;-92
2022/10/21 03:36:04;;;;;;;77.57;35.65;;;12.60;99.90;;;;;;4903997;29;20080;-90
2022/10/21 03:38:29;;;;;;;41.10;30.23;;;12.50;99.90;;;;;;4880087;29;20047;-93
2022/10/21 03:40:55;;;;;;;40.70;29.52;;;12.50;99.90;;;;;;4893224;29;20039;-94
2022/10/21 03:43:21;;;;;;;38.47;27.95;;;12.40;99.90;;;;;;4891515;29;20024;-93
2022/10/21 03:45:47;;;;;;;70.10;30.13;;;12.50;99.90;;;;;;4893497;29;20052;-93
2022/10/21 03:48:12;;;;;;;31.35;25.48;;;12.40;99.90;;;;;;4911951;29;20462;-91
2022/10/21 03:50:38;;;;;;;211.40;40.55;;;12.40;99.90;;;;;;4893758;29;20055;-93
2022/10/21 03:53:05;;;;;;;113.97;32.33;;;12.30;99.90;;;;;;4899016;29;20048;-93
2022/10/21 03:55:30;;;;;;;42.83;28.20;;;12.20;99.90;;;;;;4905980;29;20615;-91
2022/10/21 03:57:56;;;;;;;30.38;25.35;;;12.20;99.90;;;;;;4875927;29;20043;-93
2022/10/21 04:00:22;;;;;;;29.60;24.50;;;12.20;99.90;;;;;;4884068;29;20078;-94
2022/10/21 04:02:47;;;;;;;35.97;26.25;;;12.20;99.90;;;;;;4894544;29;20030;-93
2022/10/21 04:05:13;;;;;;;39.20;27.25;;;12.20;99.90;;;;;;4898536;29;20055;-93
2022/10/21 04:07:39;;;;;;;41.67;29.58;;;12.10;99.90;;;;;;4893405;29;20082;-94
2022/10/21 04:10:06;;;;;;;60.85;33.15;;;12.20;99.90;;;;;;4887825;29;20048;-92
2022/10/21 04:12:31;;;;;;;48.25;31.30;;;12.20;99.90;;;;;;4893403;29;20489;-93
2022/10/21 04:14:57;;;;;;;43.22;30.55;;;12.20;99.90;;;;;;4906542;29;20048;-92
2022/10/21 04:17:23;;;;;;;38.10;29.20;;;12.10;99.90;;;;;;4917480;29;20078;-93
2022/10/21 04:19:48;;;;;;;63.33;34.28;;;12.20;99.90;;;;;;4926586;29;20043;-93
2022/10/21 04:22:14;;;;;;;48.03;33.20;;;12.20;99.90;;;;;;4914625;29;20040;-93
2022/10/21 04:24:39;;;;;;;42.22;29.85;;;12.30;99.90;;;;;;4886774;29;20047;-94
2022/10/21 04:27:05;;;;;;;131.90;43.38;;;12.20;99.90;;;;;;4886897;29;20762;-93
2022/10/21 04:29:31;;;;;;;41.92;31.80;;;12.40;99.90;;;;;;4890211;29;20100;-94
2022/10/21 04:31:56;;;;;;;40.67;30.23;;;12.30;99.90;;;;;;4895352;29;20036;-94
2022/10/21 04:34:22;;;;;;;59.22;34.38;;;12.30;99.90;;;;;;4893040;29;20056;-94
2022/10/21 04:36:48;;;;;;;44.05;31.25;;;12.30;99.90;;;;;;4897923;29;20064;-92
2022/10/21 04:39:14;;;;;;;44.40;31.35;;;12.30;99.90;;;;;;4906663;29;20048;-92
2022/10/21 04:41:39;;;;;;;46.28;32.65;;;12.30;99.90;;;;;;4889864;29;20059;-94
2022/10/21 04:44:06;;;;;;;39.63;30.17;;;12.30;99.90;;;;;;4890452;29;20040;-92
2022/10/21 04:46:31;;;;;;;41.88;30.42;;;12.30;99.90;;;;;;4888456;29;20067;-92
2022/10/21 04:48:57;;;;;;;45.47;30.75;;;12.20;99.90;;;;;;4893983;29;20047;-93
2022/10/21 04:51:23;;;;;;;78.30;35.40;;;12.20;99.90;;;;;;4877468;29;20433;-94
2022/10/21 04:53:49;;;;;;;42.67;31.05;;;12.20;99.90;;;;;;4889157;29;20147;-92
2022/10/21 04:56:15;;;;;;;40.75;30.27;;;12.20;99.90;;;;;;4871465;29;20079;-93
2022/10/21 04:58:40;;;;;;;46.17;31.55;;;12.30;99.90;;;;;;4890385;29;20386;-93
2022/10/21 05:01:06;;;;;;;43.85;31.88;;;12.20;99.90;;;;;;4906914;29;20131;-94
2022/10/21 05:03:32;;;;;;;46.70;32.83;;;12.20;99.90;;;;;;4885199;29;20100;-93
2022/10/21 05:05:57;;;;;;;51.20;32.70;;;12.20;99.90;;;;;;4893432;29;20426;-92
2022/10/21 05:08:23;;;;;;;42.10;31.83;;;12.20;99.90;;;;;;4887491;29;20547;-94
2022/10/21 05:10:48;;;;;;;52.70;33.67;;;12.20;99.90;;;;;;4890804;29;20489;-94
2022/10/21 05:13:14;;;;;;;188.05;47.25;;;12.10;99.90;;;;;;4877691;29;20052;-92
2022/10/21 05:15:40;;;;;;;43.90;31.38;;;12.00;99.90;;;;;;4874040;29;20196;-90
2022/10/21 05:18:06;;;;;;;44.83;30.88;;;12.00;99.90;;;;;;4878955;29;20072;-91
2022/10/21 05:20:31;;;;;;;42.05;30.60;;;12.00;99.90;;;;;;4892147;29;20036;-92
2022/10/21 05:22:57;;;;;;;46.92;32.15;;;12.10;99.90;;;;;;4894258;29;20055;-92
2022/10/21 05:25:22;;;;;;;46.03;31.67;;;12.00;99.90;;;;;;4906658;29;20056;-91
2022/10/21 05:27:48;;;;;;;55.25;34.08;;;12.00;99.90;;;;;;4918264;29;20083;-91
2022/10/21 05:30:14;;;;;;;55.20;32.55;;;12.00;99.90;;;;;;4885656;29;20092;-91
2022/10/21 05:32:40;;;;;;;45.03;31.58;;;12.00;99.90;;;;;;4873681;29;20120;-91
2022/10/21 05:35:07;;;;;;;54.13;33.15;;;12.00;99.90;;;;;;4883633;29;20053;-92
2022/10/21 05:37:33;;;;;;;42.13;30.50;;;12.00;99.90;;;;;;4877632;29;20099;-91
2022/10/21 05:39:58;;;;;;;52.28;32.58;;;12.00;99.90;;;;;;4904436;29;20111;-91
2022/10/21 05:42:25;;;;;;;45.60;30.98;;;12.00;99.90;;;;;;4883383;29;20044;-90
2022/10/21 05:44:52;;;;;;;42.35;29.98;;;12.00;99.90;;;;;;4883910;29;20166;-92
2022/10/21 05:47:17;;;;;;;43.78;31.40;;;11.90;99.90;;;;;;4889094;29;20036;-90
2022/10/21 05:49:43;;;;;;;39.75;30.25;;;12.00;99.90;;;;;;4889255;29;20487;-90
2022/10/21 05:52:08;;;;;;;42.33;30.55;;;11.90;99.90;;;;;;4890029;29;20044;-90
2022/10/21 05:54:34;;;;;;;48.67;32.30;;;11.90;99.90;;;;;;4901608;29;20037;-91
2022/10/21 05:57:01;;;;;;;44.50;31.55;;;11.90;99.90;;;;;;4884851;29;20173;-92
2022/10/21 05:59:26;;;;;;;47.65;32.90;;;11.90;99.90;;;;;;4890699;29;20134;-90
2022/10/21 06:01:52;;;;;;;49.28;32.38;;;11.90;99.90;;;;;;4909351;29;20123;-93
2022/10/21 06:04:18;;;;;;;44.78;31.55;;;11.90;99.90;;;;;;4905642;29;20052;-92
2022/10/21 06:06:44;;;;;;;46.85;31.85;;;11.90;99.90;;;;;;4896906;29;20040;-92
2022/10/21 06:09:09;;;;;;;48.90;33.45;;;11.90;99.90;;;;;;4894561;29;20171;-92
2022/10/21 06:11:35;;;;;;;43.20;30.45;;;11.90;99.90;;;;;;4889130;29;20120;-92
2022/10/21 06:14:00;;;;;;;44.42;31.48;;;11.90;99.90;;;;;;4897117;29;20039;-91
2022/10/21 06:16:26;;;;;;;51.10;32.53;;;11.80;99.90;;;;;;4888102;29;20076;-91
2022/10/21 06:18:52;;;;;;;46.85;31.27;;;11.80;99.90;;;;;;4874201;29;20036;-93
2022/10/21 06:21:17;;;;;;;44.75;30.35;;;11.80;99.90;;;;;;4892315;29;20665;-90
2022/10/21 06:23:43;;;;;;;43.95;31.95;;;11.80;99.90;;;;;;4874850;29;20409;-90
2022/10/21 06:26:14;;;;;;;45.13;31.90;;;11.80;99.90;;;;;;4886567;29;20067;-91
2022/10/21 06:28:41;;;;;;;;;;;11.70;99.90;;;;;;4898661;29;20139;-90
2022/10/21 06:31:11;;;;;;;70.35;35.35;;;11.60;99.90;;;;;;4881505;29;20001;-90
2022/10/21 06:33:36;;;;;;;44.55;31.20;;;11.60;99.90;;;;;;4889123;29;20112;-90
2022/10/21 06:36:03;;;;;;;51.42;32.05;;;11.60;99.90;;;;;;4908817;29;20135;-91
2022/10/21 06:38:28;;;;;;;51.20;34.40;;;11.60;99.90;;;;;;4890252;29;20040;-91
2022/10/21 06:41:02;;;;;;;43.47;31.70;;;11.70;99.90;;;;;;4908979;29;20656;-90
2022/10/21 06:43:27;;;;;;;44.70;30.52;;;11.70;99.90;;;;;;4876178;29;20052;-93
2022/10/21 06:46:02;;;;;;;44.08;30.00;;;11.70;99.90;;;;;;4890056;29;20084;-94
2022/10/21 06:48:28;;;;;;;40.58;30.25;;;11.70;99.90;;;;;;4881365;29;20034;-94
2022/10/21 06:50:57;;;;;;;45.03;31.67;;;11.70;99.90;;;;;;4876215;29;20533;-92
2022/10/21 06:53:23;;;;;;;43.10;31.52;;;11.70;99.90;;;;;;4915518;29;20040;-94
2022/10/21 06:55:48;;;;;;;45.28;28.23;;;11.70;99.90;;;;;;4916630;29;20075;-96
2022/10/21 06:58:14;;;;;;;40.75;29.45;;;11.70;99.90;;;;;;4895702;29;20040;-96
2022/10/21 07:00:40;;;;;;;43.72;29.85;;;11.70;99.90;;;;;;4896006;29;20115;-93
2022/10/21 07:03:05;;;;;;;36.88;28.52;;;11.70;99.90;;;;;;4886352;29;20045;-96
2022/10/21 07:05:31;;;;;;;37.33;28.52;;;11.70;99.90;;;;;;4912373;29;20048;-96
2022/10/21 07:07:56;;;;;;;46.42;32.47;;;11.80;99.90;;;;;;4898578;29;20116;-95
2022/10/21 07:10:22;;;;;;;56.08;32.30;;;11.80;99.90;;;;;;4910221;29;20040;-94
2022/10/21 07:12:48;;;;;;;58.33;33.78;;;11.80;99.90;;;;;;4891248;29;20036;-93
2022/10/21 07:15:13;;;;;;;40.53;29.40;;;11.80;99.90;;;;;;4893178;29;20556;-93
2022/10/21 07:17:39;;;;;;;38.75;27.83;;;11.80;99.90;;;;;;4910587;29;20080;-94
2022/10/21 07:20:05;;;;;;;44.25;29.75;;;11.90;99.90;;;;;;4906851;29;20390;-94
2022/10/21 07:22:31;;;;;;;51.38;32.25;;;11.90;99.90;;;;;;4890742;29;20100;-94
2022/10/21 07:24:56;;;;;;;40.65;30.17;;;11.90;99.90;;;;;;4905796;29;20036;-94
2022/10/21 07:27:22;;;;;;;44.17;31.45;;;11.90;99.90;;;;;;4890110;29;20212;-94
2022/10/21 07:29:48;;;;;;;48.60;30.10;;;11.90;99.90;;;;;;4912244;29;20114;-95
2022/10/21 07:32:13;;;;;;;42.13;29.77;;;12.00;99.90;;;;;;4904191;29;20116;-94
2022/10/21 07:34:39;;;;;;;51.25;33.55;;;12.10;99.90;;;;;;4893400;29;20048;-93
2022/10/21 07:37:05;;;;;;;45.08;31.48;;;12.10;99.90;;;;;;4893795;29;20456;-93
2022/10/21 07:39:33;;;;;;;41.65;30.05;;;12.10;99.90;;;;;;4910473;29;20079;-94
2022/10/21 07:41:58;;;;;;;43.00;30.95;;;12.20;99.90;;;;;;4916737;29;20099;-95
2022/10/21 07:44:25;;;;;;;43.47;31.08;;;12.10;99.90;;;;;;4895916;29;20130;-93
2022/10/21 07:46:52;;;;;;;46.15;32.45;;;12.20;99.90;;;;;;4904333;29;20405;-94
2022/10/21 07:49:19;;;;;;;50.85;34.28;;;12.30;99.90;;;;;;4894733;29;20036;-95
2022/10/21 07:51:46;;;;;;;41.13;30.38;;;12.30;99.90;;;;;;4888719;29;20418;-92
2022/10/21 07:54:13;;;;;;;42.30;30.63;;;12.40;99.90;;;;;;4892270;29;20040;-94
2022/10/21 07:56:42;;;;;;;40.53;32.03;;;12.40;99.90;;;;;;4875390;29;20051;-94
2022/10/21 07:59:09;;;;;;;53.15;34.67;;;12.70;99.90;;;;;;4868337;29;20048;-93
2022/10/21 08:01:35;;;;;;;44.15;32.20;;;12.60;99.90;;;;;;4877609;29;20040;-95
2022/10/21 08:04:01;;;;;;;47.67;33.65;;;12.70;99.90;;;;;;4882335;29;20046;-94
2022/10/21 08:06:27;;;;;;;45.70;32.53;;;12.80;99.90;;;;;;4906134;29;20050;-94
2022/10/21 08:08:56;;;;;;;42.22;31.75;;;12.90;99.90;;;;;;4877989;29;20043;-93
2022/10/21 08:11:29;;;;;;;43.25;31.92;;;13.00;99.90;;;;;;4881415;29;20051;-96
2022/10/21 08:13:55;;;;;;;43.28;32.53;;;13.10;99.90;;;;;;4905154;29;20119;-92
2022/10/21 08:16:21;;;;;;;41.08;31.83;;;13.20;99.90;;;;;;4903864;29;20032;-96
2022/10/21 08:18:47;;;;;;;42.22;31.05;;;13.30;99.90;;;;;;4901208;29;20032;-94
2022/10/21 08:21:13;;;;;;;39.03;30.52;;;13.40;99.90;;;;;;4909031;29;20114;-96
2022/10/21 08:23:39;;;;;;;43.47;31.92;;;13.50;99.90;;;;;;4891707;29;20024;-95
2022/10/21 08:26:10;;;;;;;39.15;30.10;;;13.60;99.90;;;;;;4883420;29;20057;-96
2022/10/21 08:28:36;;;;;;;39.53;30.10;;;13.90;99.90;;;;;;4887306;29;20052;-95
2022/10/21 08:31:28;;;;;;;38.45;30.17;;;13.90;99.90;;;;;;4892768;29;20101;-96
2022/10/21 11:31:07;;;;;;;18.83;13.52;;;16.60;99.90;;;;;;1473369;26;20134;-90
2022/10/21 11:33:51;;;;;;;17.17;14.05;;;16.60;99.90;;;;;;4946747;29;20800;-88
2022/10/21 11:36:27;;;;;;;15.68;13.00;;;16.70;99.90;;;;;;4922693;29;20048;-89
2022/10/21 11:38:59;;;;;;;19.45;12.45;;;16.70;99.90;;;;;;4942386;29;20099;-90
2022/10/21 11:41:39;;;;;;;16.48;13.02;;;16.70;99.90;;;;;;4938793;29;20046;-90
2022/10/21 11:44:15;;;;;;;16.70;13.18;;;16.70;99.90;;;;;;4924423;29;20051;-91
2022/10/21 11:46:47;;;;;;;17.83;13.20;;;16.70;99.90;;;;;;4922206;29;20500;-90
2022/10/21 11:49:30;;;;;;;17.58;13.25;;;16.80;99.90;;;;;;4946537;29;20131;-90
2022/10/21 11:52:08;;;;;;;17.52;12.48;;;16.70;99.90;;;;;;4944485;29;20035;-90
2022/10/21 11:55:06;;;;;;;17.60;12.57;;;16.80;99.90;;;;;;4925749;29;20349;-90
2022/10/21 11:57:52;;;;;;;15.05;11.95;;;16.80;99.90;;;;;;4944979;29;20050;-89
2022/10/21 12:00:21;;;;;;;17.23;12.05;;;16.80;99.90;;;;;;4926655;29;20044;-90
2022/10/21 12:03:22;;;;;;;16.92;12.52;;;16.90;99.90;;;;;;4946211;29;20090;-90
2022/10/21 12:06:12;;;;;;;18.23;12.65;;;16.90;99.90;;;;;;4826574;29;20080;-89
2022/10/21 12:09:03;;;;;;;15.75;12.00;;;16.90;99.90;;;;;;4846169;29;20053;-89
2022/10/21 12:11:40;;;;;;;;;;;16.90;99.90;;;;;;4840644;29;20050;-89
2022/10/21 12:14:25;;;;;;;14.98;11.43;;;16.90;99.90;;;;;;4843705;29;20345;-90
2022/10/21 12:16:53;;;;;;;15.73;11.57;;;16.90;99.90;;;;;;4824283;29;21551;-89
2022/10/21 12:19:21;;;;;;;16.85;11.77;;;16.90;99.90;;;;;;4848384;29;20054;-90
2022/10/21 12:21:47;;;;;;;17.08;11.48;;;17.00;99.90;;;;;;4831956;29;20053;-89
2022/10/21 12:24:37;;;;;;;15.73;11.18;;;17.00;99.90;;;;;;4836155;29;20094;-90
2022/10/21 12:27:18;;;;;;;18.52;11.02;;;17.00;99.90;;;;;;4845528;29;20071;-92
2022/10/21 12:30:17;;;;;;;15.50;11.13;;;17.00;99.90;;;;;;4837934;29;20058;-91
2022/10/21 12:33:01;;;;;;;16.40;10.90;;;17.10;99.90;;;;;;4848797;29;20049;-89
2022/10/21 12:35:41;;;;;;;19.13;11.35;;;17.10;99.90;;;;;;4855621;29;20065;-87
2022/10/21 12:38:20;;;;;;;15.83;11.10;;;17.10;99.90;;;;;;4833706;29;20106;-88
2022/10/21 12:40:47;;;;;;;16.15;10.57;;;17.00;99.90;;;;;;4833863;29;20037;-88
2022/10/21 12:43:26;;;;;;;15.73;10.23;;;17.00;99.90;;;;;;4918196;29;20059;-88
2022/10/21 12:46:09;;;;;;;13.75;10.05;;;17.00;99.90;;;;;;4926080;29;20039;-90
2022/10/21 12:48:47;;;;;;;13.80;9.93;;;17.00;99.90;;;;;;4911618;29;20051;-88
2022/10/21 12:51:31;;;;;;;14.52;9.93;;;17.00;99.90;;;;;;4949877;29;20118;-87
2022/10/21 12:54:10;;;;;;;15.32;10.15;;;16.90;99.90;;;;;;4912915;29;20046;-88
2022/10/21 12:56:56;;;;;;;16.98;10.40;;;16.90;99.90;;;;;;4926243;29;20048;-88
2022/10/21 12:59:35;;;;;;;14.45;10.45;;;16.90;99.90;;;;;;4923845;29;20500;-89
2022/10/21 13:02:04;;;;;;;15.65;9.60;;;16.90;99.90;;;;;;4924931;29;20039;-92
2022/10/21 13:04:32;;;;;;;12.57;9.38;;;16.90;99.90;;;;;;4923960;29;20419;-91
2022/10/21 13:07:29;;;;;;;14.82;9.48;;;16.90;99.90;;;;;;4926355;29;20062;-93
2022/10/21 13:09:54;;;;;;;16.35;9.55;;;16.90;99.90;;;;;;4916688;29;20048;-94
2022/10/21 13:12:21;;;;;;;14.13;9.57;;;17.00;99.90;;;;;;4912777;28;20366;-92
2022/10/21 13:14:50;;;;;;;14.98;10.18;;;17.00;99.90;;;;;;4914210;29;20047;-92
2022/10/21 13:17:21;;;;;;;15.57;9.43;;;17.00;99.90;;;;;;4926966;29;20043;-94
2022/10/21 13:19:51;;;;;;;12.95;9.55;;;17.00;99.90;;;;;;4908769;29;20047;-92
2022/10/21 13:22:17;;;;;;;15.85;9.38;;;17.10;99.90;;;;;;4927269;29;20047;-93
2022/10/21 13:24:45;;;;;;;15.73;8.98;;;17.10;99.90;;;;;;4932425;29;20046;-93
2022/10/21 13:27:32;;;;;;;13.75;9.27;;;17.10;99.90;;;;;;4913833;29;20991;-93
2022/10/21 13:29:59;;;;;;;14.32;8.40;;;17.20;99.90;;;;;;4912486;29;20039;-93
2022/10/21 13:32:33;;;;;;;15.10;8.55;;;17.30;99.90;;;;;;4915730;29;20060;-91
2022/10/21 13:35:01;;;;;;;14.25;8.52;;;17.40;99.90;;;;;;4952425;29;20087;-93
2022/10/21 13:37:37;;;;;;;12.38;7.85;;;17.40;99.90;;;;;;4928042;29;20130;-92
2022/10/21 13:40:06;;;;;;;12.60;7.60;;;17.40;99.90;;;;;;4926943;29;20070;-95
2022/10/21 13:42:37;;;;;;;12.40;7.53;;;17.50;99.90;;;;;;4933213;29;20122;-93
2022/10/21 13:45:23;;;;;;;13.30;7.78;;;17.50;99.90;;;;;;4909657;29;20044;-95
2022/10/21 13:48:13;;;;;;;13.50;7.85;;;17.60;99.90;;;;;;4932195;29;20042;-93
2022/10/21 13:50:41;;;;;;;10.88;7.28;;;17.60;99.90;;;;;;4913216;29;20102;-95
2022/10/21 13:53:16;;;;;;;13.05;7.75;;;17.60;99.90;;;;;;4951447;29;20092;-95
2022/10/21 13:55:41;;;;;;;12.02;7.05;;;17.60;99.90;;;;;;4907121;29;20043;-95
2022/10/21 13:58:15;;;;;;;12.60;7.38;;;17.60;99.90;;;;;;4931449;29;20618;-94
2022/10/21 14:00:41;;;;;;;11.98;6.82;;;17.60;99.90;;;;;;4931723;29;20075;-95
2022/10/21 14:03:06;;;;;;;15.10;7.82;;;17.60;99.90;;;;;;4916632;29;20047;-95
2022/10/21 14:05:35;;;;;;;12.23;7.28;;;17.60;99.90;;;;;;4929120;29;20039;-95
2022/10/21 14:08:03;;;;;;;13.05;7.00;;;17.70;99.90;;;;;;4927190;29;20066;-95
2022/10/21 14:10:29;;;;;;;12.13;6.97;;;17.70;99.90;;;;;;4929809;29;20073;-95
2022/10/21 14:12:58;;;;;;;14.88;6.53;;;17.70;99.90;;;;;;4924258;29;20098;-92
2022/10/21 14:15:34;;;;;;;11.98;6.55;;;17.70;99.90;;;;;;4910392;29;20496;-95
2022/10/21 14:18:00;;;;;;;10.57;6.20;;;17.70;99.90;;;;;;4942540;29;20075;-93
2022/10/21 14:20:33;;;;;;;11.45;6.93;;;17.70;99.90;;;;;;4916494;29;20056;-94
2022/10/21 14:23:02;;;;;;;12.32;5.93;;;17.70;99.90;;;;;;4924878;29;20051;-94
2022/10/21 14:25:29;;;;;;;13.25;6.60;;;17.70;99.90;;;;;;4910581;29;20063;-94
2022/10/21 14:27:54;;;;;;;12.07;6.10;;;17.60;99.90;;;;;;4930025;29;20071;-93
2022/10/21 14:30:25;;;;;;;9.70;5.57;;;17.50;99.90;;;;;;4954242;29;20025;-94
2022/10/21 14:32:52;;;;;;;10.32;6.20;;;17.50;99.90;;;;;;4945053;29;20051;-93
2022/10/21 14:35:17;;;;;;;10.35;5.82;;;17.40;99.90;;;;;;4967844;28;20032;-93
2022/10/21 14:37:53;;;;;;;10.52;5.60;;;17.40;99.90;;;;;;4924565;29;20090;-94
2022/10/21 14:40:19;;;;;;;10.30;6.45;;;17.30;99.90;;;;;;4930058;29;20043;-94
2022/10/21 14:42:46;;;;;;;12.10;5.38;;;17.30;99.90;;;;;;4933330;29;20139;-96
2022/10/21 14:45:22;;;;;;;11.32;6.03;;;17.30;99.90;;;;;;4921331;29;20044;-92
2022/10/21 14:47:50;;;;;;;11.45;5.78;;;17.30;99.90;;;;;;4910290;29;20035;-89
2022/10/21 14:50:22;;;;;;;9.68;5.80;;;17.30;99.90;;;;;;4915529;29;20039;-93
2022/10/21 14:52:49;;;;;;;10.43;5.38;;;17.30;99.90;;;;;;4932643;29;20090;-93
2022/10/21 14:55:18;;;;;;;11.27;5.50;;;17.30;99.90;;;;;;4938545;29;20055;-93
2022/10/21 14:57:51;;;;;;;10.38;5.22;;;17.30;99.90;;;;;;4913702;29;20039;-94
2022/10/21 15:00:25;;;;;;;11.40;6.00;;;17.30;99.90;;;;;;4919650;29;20552;-91
2022/10/21 15:02:52;;;;;;;10.80;5.43;;;17.40;99.90;;;;;;4930529;29;20063;-93
2022/10/21 15:05:38;;;;;;;11.35;5.50;;;17.40;99.90;;;;;;4912139;29;20031;-94
2022/10/21 15:08:20;;;;;;;9.25;5.18;;;17.40;99.90;;;;;;4917772;29;20059;-93
2022/10/21 15:10:55;;;;;;;11.65;5.80;;;17.50;99.90;;;;;;4919187;29;20036;-93
2022/10/21 15:13:21;;;;;;;9.38;5.22;;;17.50;99.90;;;;;;4930066;29;20067;-92
2022/10/21 15:15:49;;;;;;;11.25;5.78;;;17.50;99.90;;;;;;4944431;29;20035;-92
2022/10/21 15:18:18;;;;;;;10.77;5.15;;;17.50;99.90;;;;;;4911681;29;20050;-92
2022/10/21 15:21:22;;;;;;;11.85;5.65;;;17.50;99.90;;;;;;4923669;29;20051;-94
2022/10/21 15:23:53;;;;;;;11.25;5.32;;;17.50;99.90;;;;;;4936792;29;20058;-92
2022/10/21 15:26:28;;;;;;;10.77;6.03;;;17.50;99.90;;;;;;4933062;29;20069;-92
2022/10/21 15:28:55;;;;;;;9.82;5.50;;;17.50;99.90;;;;;;4909263;29;20253;-90
2022/10/21 15:31:26;;;;;;;9.75;5.72;;;17.50;99.90;;;;;;4924087;29;20080;-90
2022/10/21 15:33:54;;;;;;;11.35;5.80;;;17.50;99.90;;;;;;4934280;29;20035;-90
2022/10/21 15:36:21;;;;;;;10.95;6.00;;;17.50;99.90;;;;;;4923125;29;20047;-91
2022/10/21 15:38:47;;;;;;;9.93;5.93;;;17.40;99.90;;;;;;4919534;29;20062;-93
2022/10/21 15:41:19;;;;;;;11.15;5.75;;;17.40;99.90;;;;;;4934587;29;20043;-90
2022/10/21 15:44:02;;;;;;;11.50;5.53;;;17.40;99.90;;;;;;4908861;29;20047;-93